Hauptseite
METAR-TAF:

METAR-TAF

Flughäfen :

Aigen im Ennstal, Österreich

Breite: 47-32N, Länge: 014-08E, Höhe: 638 m

METAR: fehlend

Zeit: 09:29 (08:29 UTC)

Prognose

Neuester Wetterbericht von vor 14 Minuten, um 08:15 UTC
Gültige Prognose vom 17 um 09 UTC bis 17 um 18 UTC
Wind 2 kt aus unterschiedlichen Richtungen
Sichtweite 10 km oder mehr
Leicht bewölkt in der Höhe von 500 ft
Durchbrochene Bewölkung in der Höhe von 1500 ft
Wahrscheinlichkeit 40% :
Zeitweise
vom 17 um 11 UTC bis 17 um 18 UTC
Sichtweite 10 km oder mehr
Aufgelockert bewölkt in der Höhe von 2000 ft
Aufgelockert bewölkt in der Höhe von 10000 ft

TAF: LOXA 170815Z 1709/1718 VRB02KT 9999 FEW005 BKN015 PROB40 TEMPO 1711/1718 9999 SCT020 SCT100

Wetterbeobachtungen und Prognosen von mehr als 4000 Flughäfen (METAR und TAF Bericht).

Die verfügbaren Stationen werden durch gelbe und rote Markierungen auf der Karte dargestellt.

Führen Sie die Maus auf sie, um den Namen der Station zu sehen.

Darauf klicken, um die Beobachtung von Wetterbeobachtungen und Prognosen zu sehen.

Um die Karte zu ändern : klicken Sie auf den grünen Tasten mit einem schwarzen Kreuz Zum Vergrößern, auf den grünen Button mit einem Gedankenstrich zu verkleinern, oder auf die grünen Pfeile für benachbarte Karten.


METAR-TAF: